sensor_id;sensor_type;location;lat;lon;timestamp;pressure;altitude;pressure_sealevel;temperature;humidity
23339;BME280;11841;49.368;20.962;2023-04-27T00:00:34;95783.72;;;2.40;74.72
23339;BME280;11841;49.368;20.962;2023-04-27T00:03:20;95777.50;;;2.33;74.94
23339;BME280;11841;49.368;20.962;2023-04-27T00:06:07;95774.22;;;2.31;74.50
23339;BME280;11841;49.368;20.962;2023-04-27T00:08:53;95777.69;;;2.24;75.14
23339;BME280;11841;49.368;20.962;2023-04-27T00:12:09;95775.88;;;2.16;75.02
23339;BME280;11841;49.368;20.962;2023-04-27T00:14:55;95781.44;;;2.13;75.26
23339;BME280;11841;49.368;20.962;2023-04-27T00:17:40;95777.81;;;2.14;74.87
23339;BME280;11841;49.368;20.962;2023-04-27T00:20:27;95780.59;;;2.13;75.22
23339;BME280;11841;49.368;20.962;2023-04-27T00:23:12;95781.44;;;2.13;74.95
23339;BME280;11841;49.368;20.962;2023-04-27T00:25:57;95776.34;;;2.04;74.95
23339;BME280;11841;49.368;20.962;2023-04-27T00:28:43;95772.09;;;2.03;75.51
23339;BME280;11841;49.368;20.962;2023-04-27T00:31:28;95778.16;;;2.03;75.10
23339;BME280;11841;49.368;20.962;2023-04-27T00:34:13;95779.13;;;2.02;75.36
23339;BME280;11841;49.368;20.962;2023-04-27T00:36:59;95778.34;;;2.02;75.11
23339;BME280;11841;49.368;20.962;2023-04-27T00:39:44;95775.72;;;2.02;75.01
23339;BME280;11841;49.368;20.962;2023-04-27T00:42:29;95778.63;;;1.99;74.83
23339;BME280;11841;49.368;20.962;2023-04-27T00:45:15;95774.56;;;1.88;75.28
23339;BME280;11841;49.368;20.962;2023-04-27T00:48:00;95783.88;;;1.83;75.48
23339;BME280;11841;49.368;20.962;2023-04-27T00:50:45;95780.25;;;1.76;75.51
23339;BME280;11841;49.368;20.962;2023-04-27T00:53:31;95783.38;;;1.71;75.92
23339;BME280;11841;49.368;20.962;2023-04-27T00:56:17;95777.47;;;1.69;75.79
23339;BME280;11841;49.368;20.962;2023-04-27T00:59:02;95783.66;;;1.60;75.82
23339;BME280;11841;49.368;20.962;2023-04-27T01:01:48;95779.41;;;1.59;75.77
23339;BME280;11841;49.368;20.962;2023-04-27T01:04:34;95787.53;;;1.56;75.61
23339;BME280;11841;49.368;20.962;2023-04-27T01:07:25;95777.09;;;1.56;75.59
23339;BME280;11841;49.368;20.962;2023-04-27T01:10:10;95779.38;;;1.51;75.62
23339;BME280;11841;49.368;20.962;2023-04-27T01:12:56;95780.38;;;1.50;75.87
23339;BME280;11841;49.368;20.962;2023-04-27T01:15:41;95781.97;;;1.43;75.94
23339;BME280;11841;49.368;20.962;2023-04-27T01:18:26;95780.19;;;1.44;75.99
23339;BME280;11841;49.368;20.962;2023-04-27T01:21:11;95786.84;;;1.38;75.83
23339;BME280;11841;49.368;20.962;2023-04-27T01:23:57;95783.59;;;1.36;75.91
23339;BME280;11841;49.368;20.962;2023-04-27T01:26:42;95789.13;;;1.33;75.97
23339;BME280;11841;49.368;20.962;2023-04-27T01:29:27;95788.47;;;1.31;75.86
23339;BME280;11841;49.368;20.962;2023-04-27T01:32:13;95779.97;;;1.29;76.31
23339;BME280;11841;49.368;20.962;2023-04-27T01:34:58;95784.84;;;1.24;76.17
23339;BME280;11841;49.368;20.962;2023-04-27T01:37:43;95795.63;;;1.29;76.19
23339;BME280;11841;49.368;20.962;2023-04-27T01:40:28;95790.72;;;1.26;76.16
23339;BME280;11841;49.368;20.962;2023-04-27T01:43:14;95790.06;;;1.24;75.83
23339;BME280;11841;49.368;20.962;2023-04-27T01:46:11;95790.53;;;1.19;76.12
23339;BME280;11841;49.368;20.962;2023-04-27T01:48:57;95796.59;;;1.20;76.09
23339;BME280;11841;49.368;20.962;2023-04-27T01:51:42;95793.97;;;1.12;75.96
23339;BME280;11841;49.368;20.962;2023-04-27T01:54:28;95790.69;;;1.10;76.33
23339;BME280;11841;49.368;20.962;2023-04-27T01:57:13;95797.84;;;1.08;76.11
23339;BME280;11841;49.368;20.962;2023-04-27T01:59:58;95800.63;;;1.06;76.44
23339;BME280;11841;49.368;20.962;2023-04-27T02:02:44;95801.91;;;1.02;76.13
23339;BME280;11841;49.368;20.962;2023-04-27T02:05:30;95804.34;;;1.04;76.60
23339;BME280;11841;49.368;20.962;2023-04-27T02:08:15;95805.34;;;1.03;76.44
23339;BME280;11841;49.368;20.962;2023-04-27T02:11:00;95806.97;;;1.04;77.10
23339;BME280;11841;49.368;20.962;2023-04-27T02:13:46;95806.28;;;1.02;77.16
23339;BME280;11841;49.368;20.962;2023-04-27T02:16:32;95806.28;;;1.02;77.73
23339;BME280;11841;49.368;20.962;2023-04-27T02:19:18;95803.75;;;1.10;77.70
23339;BME280;11841;49.368;20.962;2023-04-27T02:22:03;95810.25;;;1.14;78.06
23339;BME280;11841;49.368;20.962;2023-04-27T02:24:48;95803.44;;;1.21;77.90
23339;BME280;11841;49.368;20.962;2023-04-27T02:27:39;95816.50;;;1.21;78.46
23339;BME280;11841;49.368;20.962;2023-04-27T02:30:24;95810.31;;;1.22;78.26
23339;BME280;11841;49.368;20.962;2023-04-27T02:33:10;95815.84;;;1.19;78.65
23339;BME280;11841;49.368;20.962;2023-04-27T02:35:56;95817.81;;;1.17;78.90
23339;BME280;11841;49.368;20.962;2023-04-27T02:38:41;95816.63;;;1.11;78.90
23339;BME280;11841;49.368;20.962;2023-04-27T02:41:30;95813.88;;;1.13;79.15
23339;BME280;11841;49.368;20.962;2023-04-27T02:44:15;95809.63;;;1.12;78.89
23339;BME280;11841;49.368;20.962;2023-04-27T02:47:01;95811.84;;;1.07;78.97
23339;BME280;11841;49.368;20.962;2023-04-27T02:49:46;95812.19;;;1.04;78.78
23339;BME280;11841;49.368;20.962;2023-04-27T02:52:31;95813.06;;;0.87;79.98
23339;BME280;11841;49.368;20.962;2023-04-27T02:55:17;95811.75;;;0.83;79.82
23339;BME280;11841;49.368;20.962;2023-04-27T02:58:02;95813.91;;;0.87;80.09
23339;BME280;11841;49.368;20.962;2023-04-27T03:00:53;95814.41;;;0.91;79.25
23339;BME280;11841;49.368;20.962;2023-04-27T03:03:38;95821.09;;;0.93;79.22
23339;BME280;11841;49.368;20.962;2023-04-27T03:06:23;95821.41;;;0.90;78.87
23339;BME280;11841;49.368;20.962;2023-04-27T03:09:08;95822.22;;;0.91;78.77
23339;BME280;11841;49.368;20.962;2023-04-27T03:12:00;95818.63;;;0.92;78.49
23339;BME280;11841;49.368;20.962;2023-04-27T03:14:46;95825.84;;;0.90;78.03
23339;BME280;11841;49.368;20.962;2023-04-27T03:17:31;95826.44;;;0.84;78.15
23339;BME280;11841;49.368;20.962;2023-04-27T03:20:16;95832.28;;;0.78;78.07
23339;BME280;11841;49.368;20.962;2023-04-27T03:23:02;95834.53;;;0.73;78.09
23339;BME280;11841;49.368;20.962;2023-04-27T03:25:47;95833.41;;;0.75;78.13
23339;BME280;11841;49.368;20.962;2023-04-27T03:28:33;95833.03;;;0.70;78.03
23339;BME280;11841;49.368;20.962;2023-04-27T03:31:19;95830.75;;;0.67;78.10
23339;BME280;11841;49.368;20.962;2023-04-27T03:34:04;95829.75;;;0.68;78.71
23339;BME280;11841;49.368;20.962;2023-04-27T03:36:49;95835.66;;;0.70;78.42
23339;BME280;11841;49.368;20.962;2023-04-27T03:39:35;95841.38;;;0.74;78.21
23339;BME280;11841;49.368;20.962;2023-04-27T03:42:20;95842.22;;;0.74;78.12
23339;BME280;11841;49.368;20.962;2023-04-27T03:45:06;95842.81;;;0.68;78.13
23339;BME280;11841;49.368;20.962;2023-04-27T03:47:52;95855.50;;;0.63;78.26
23339;BME280;11841;49.368;20.962;2023-04-27T03:50:37;95841.25;;;0.58;78.28
23339;BME280;11841;49.368;20.962;2023-04-27T03:53:23;95849.25;;;0.56;78.32
23339;BME280;11841;49.368;20.962;2023-04-27T03:56:08;95853.94;;;0.53;78.26
23339;BME280;11841;49.368;20.962;2023-04-27T03:58:53;95852.16;;;0.53;78.39
23339;BME280;11841;49.368;20.962;2023-04-27T04:01:39;95853.00;;;0.54;78.56
23339;BME280;11841;49.368;20.962;2023-04-27T04:04:25;95867.66;;;0.55;78.79
23339;BME280;11841;49.368;20.962;2023-04-27T04:07:10;95867.66;;;0.55;78.86
23339;BME280;11841;49.368;20.962;2023-04-27T04:09:55;95870.13;;;0.56;78.99
23339;BME280;11841;49.368;20.962;2023-04-27T04:12:40;95875.31;;;0.56;78.95
23339;BME280;11841;49.368;20.962;2023-04-27T04:15:26;95869.16;;;0.57;78.97
23339;BME280;11841;49.368;20.962;2023-04-27T04:18:11;95875.28;;;0.48;79.94
23339;BME280;11841;49.368;20.962;2023-04-27T04:20:57;95876.25;;;0.47;79.88
23339;BME280;11841;49.368;20.962;2023-04-27T04:23:42;95876.78;;;0.51;79.60
23339;BME280;11841;49.368;20.962;2023-04-27T04:26:27;95874.31;;;0.49;79.58
23339;BME280;11841;49.368;20.962;2023-04-27T04:29:13;95879.75;;;0.56;79.96
23339;BME280;11841;49.368;20.962;2023-04-27T04:31:58;95875.84;;;0.60;79.87
23339;BME280;11841;49.368;20.962;2023-04-27T04:34:50;95891.50;;;0.60;79.81
23339;BME280;11841;49.368;20.962;2023-04-27T04:37:35;95893.53;;;0.66;79.75
23339;BME280;11841;49.368;20.962;2023-04-27T04:40:21;95893.69;;;0.64;80.22
23339;BME280;11841;49.368;20.962;2023-04-27T04:43:06;95891.59;;;0.68;80.35
23339;BME280;11841;49.368;20.962;2023-04-27T04:45:52;95898.59;;;0.67;80.47
23339;BME280;11841;49.368;20.962;2023-04-27T04:48:37;95899.63;;;0.74;80.62
23339;BME280;11841;49.368;20.962;2023-04-27T04:51:22;95905.34;;;0.78;80.57
23339;BME280;11841;49.368;20.962;2023-04-27T04:54:08;95907.97;;;0.78;80.57
23339;BME280;11841;49.368;20.962;2023-04-27T04:56:54;95914.34;;;0.83;80.85
23339;BME280;11841;49.368;20.962;2023-04-27T04:59:39;95912.91;;;0.89;81.08
23339;BME280;11841;49.368;20.962;2023-04-27T05:02:25;95910.50;;;0.95;81.04
23339;BME280;11841;49.368;20.962;2023-04-27T05:05:10;95917.31;;;0.88;81.47
23339;BME280;11841;49.368;20.962;2023-04-27T05:07:55;95913.22;;;0.86;81.79
23339;BME280;11841;49.368;20.962;2023-04-27T05:10:41;95906.88;;;0.88;81.68
23339;BME280;11841;49.368;20.962;2023-04-27T05:13:26;95906.59;;;0.91;81.82
23339;BME280;11841;49.368;20.962;2023-04-27T05:16:12;95904.13;;;0.90;81.76
23339;BME280;11841;49.368;20.962;2023-04-27T05:18:57;95909.03;;;0.93;82.44
23339;BME280;11841;49.368;20.962;2023-04-27T05:21:46;95917.06;;;0.99;82.54
23339;BME280;11841;49.368;20.962;2023-04-27T05:24:32;95914.63;;;0.98;83.00
23339;BME280;11841;49.368;20.962;2023-04-27T05:27:17;95910.66;;;0.94;83.46
23339;BME280;11841;49.368;20.962;2023-04-27T05:30:02;95911.69;;;1.01;83.59
23339;BME280;11841;49.368;20.962;2023-04-27T05:32:47;95917.91;;;1.00;83.95
23339;BME280;11841;49.368;20.962;2023-04-27T05:35:33;95924.44;;;1.04;84.42
23339;BME280;11841;49.368;20.962;2023-04-27T05:38:18;95918.53;;;1.02;84.74
23339;BME280;11841;49.368;20.962;2023-04-27T05:41:03;95928.09;;;1.11;84.34
23339;BME280;11841;49.368;20.962;2023-04-27T05:43:49;95926.47;;;1.10;85.11
23339;BME280;11841;49.368;20.962;2023-04-27T05:46:35;95934.97;;;1.12;85.58
23339;BME280;11841;49.368;20.962;2023-04-27T05:49:22;95924.09;;;1.24;84.91
23339;BME280;11841;49.368;20.962;2023-04-27T05:52:07;95936.91;;;1.36;84.91
23339;BME280;11841;49.368;20.962;2023-04-27T05:54:52;95942.16;;;1.44;84.63
23339;BME280;11841;49.368;20.962;2023-04-27T05:57:38;95931.56;;;1.45;85.76
23339;BME280;11841;49.368;20.962;2023-04-27T06:00:24;95929.28;;;1.50;85.93
23339;BME280;11841;49.368;20.962;2023-04-27T06:03:09;95932.56;;;1.52;87.41
23339;BME280;11841;49.368;20.962;2023-04-27T06:05:57;95923.94;;;1.60;88.92
23339;BME280;11841;49.368;20.962;2023-04-27T06:08:43;95930.69;;;1.70;89.07
23339;BME280;11841;49.368;20.962;2023-04-27T06:11:28;95931.06;;;1.83;88.46
23339;BME280;11841;49.368;20.962;2023-04-27T06:14:13;95920.97;;;1.96;88.06
23339;BME280;11841;49.368;20.962;2023-04-27T06:16:59;95933.94;;;2.14;88.08
23339;BME280;11841;49.368;20.962;2023-04-27T06:19:44;95928.75;;;2.30;87.74
23339;BME280;11841;49.368;20.962;2023-04-27T06:22:29;95935.81;;;2.45;87.87
23339;BME280;11841;49.368;20.962;2023-04-27T06:25:15;95926.16;;;2.62;88.33
23339;BME280;11841;49.368;20.962;2023-04-27T06:28:00;95933.72;;;2.81;88.30
23339;BME280;11841;49.368;20.962;2023-04-27T06:30:45;95935.34;;;2.98;88.18
23339;BME280;11841;49.368;20.962;2023-04-27T06:33:31;95937.59;;;3.09;87.26
23339;BME280;11841;49.368;20.962;2023-04-27T06:36:16;95945.63;;;3.24;87.20
23339;BME280;11841;49.368;20.962;2023-04-27T06:39:02;95938.56;;;3.40;84.97
23339;BME280;11841;49.368;20.962;2023-04-27T06:41:47;95933.56;;;3.61;83.42
23339;BME280;11841;49.368;20.962;2023-04-27T06:44:32;95938.91;;;3.84;81.87
23339;BME280;11841;49.368;20.962;2023-04-27T06:47:18;95928.97;;;4.10;80.23
23339;BME280;11841;49.368;20.962;2023-04-27T06:50:03;95938.69;;;4.32;75.66
23339;BME280;11841;49.368;20.962;2023-04-27T06:52:49;95940.53;;;4.54;71.48
23339;BME280;11841;49.368;20.962;2023-04-27T06:55:34;95925.66;;;4.69;73.80
23339;BME280;11841;49.368;20.962;2023-04-27T06:58:20;95936.63;;;4.73;74.44
23339;BME280;11841;49.368;20.962;2023-04-27T07:01:06;95936.72;;;4.79;70.97
23339;BME280;11841;49.368;20.962;2023-04-27T07:03:51;95937.84;;;4.85;72.11
23339;BME280;11841;49.368;20.962;2023-04-27T07:06:37;95947.16;;;4.87;69.59
23339;BME280;11841;49.368;20.962;2023-04-27T07:09:22;95940.03;;;4.96;69.15
23339;BME280;11841;49.368;20.962;2023-04-27T07:12:11;95953.81;;;4.98;67.02
23339;BME280;11841;49.368;20.962;2023-04-27T07:14:56;95935.19;;;5.08;65.88
23339;BME280;11841;49.368;20.962;2023-04-27T07:17:42;95953.25;;;5.11;66.46
23339;BME280;11841;49.368;20.962;2023-04-27T07:20:27;95943.47;;;5.19;67.06
23339;BME280;11841;49.368;20.962;2023-04-27T07:23:12;95946.53;;;5.23;66.98
23339;BME280;11841;49.368;20.962;2023-04-27T07:25:58;95957.06;;;5.23;64.55
23339;BME280;11841;49.368;20.962;2023-04-27T07:28:43;95952.91;;;5.28;63.22
23339;BME280;11841;49.368;20.962;2023-04-27T07:31:28;95952.38;;;5.33;64.60
23339;BME280;11841;49.368;20.962;2023-04-27T07:34:14;95956.63;;;5.34;64.05
23339;BME280;11841;49.368;20.962;2023-04-27T07:37:00;95956.91;;;5.39;62.81
23339;BME280;11841;49.368;20.962;2023-04-27T07:39:45;95960.84;;;5.43;62.51
23339;BME280;11841;49.368;20.962;2023-04-27T07:42:30;95953.56;;;5.45;63.10
23339;BME280;11841;49.368;20.962;2023-04-27T07:45:15;95957.13;;;5.52;63.42
23339;BME280;11841;49.368;20.962;2023-04-27T07:48:04;95959.41;;;5.55;62.15
23339;BME280;11841;49.368;20.962;2023-04-27T07:50:50;95957.06;;;5.60;61.17
23339;BME280;11841;49.368;20.962;2023-04-27T07:53:35;95955.88;;;5.62;61.17
23339;BME280;11841;49.368;20.962;2023-04-27T07:56:20;95948.06;;;5.69;62.08
23339;BME280;11841;49.368;20.962;2023-04-27T07:59:06;95939.47;;;5.75;63.03
23339;BME280;11841;49.368;20.962;2023-04-27T08:01:51;95948.59;;;5.79;61.43
23339;BME280;11841;49.368;20.962;2023-04-27T08:04:41;95953.91;;;5.93;61.77
23339;BME280;11841;49.368;20.962;2023-04-27T08:07:27;95939.91;;;6.07;61.23
23339;BME280;11841;49.368;20.962;2023-04-27T08:10:14;95944.97;;;6.24;62.05
23339;BME280;11841;49.368;20.962;2023-04-27T08:12:59;95939.78;;;6.30;61.20
23339;BME280;11841;49.368;20.962;2023-04-27T08:15:45;95935.03;;;6.40;59.28
23339;BME280;11841;49.368;20.962;2023-04-27T08:18:30;95948.00;;;6.56;58.80
23339;BME280;11841;49.368;20.962;2023-04-27T08:21:16;95941.97;;;6.62;54.24
23339;BME280;11841;49.368;20.962;2023-04-27T08:24:02;95937.91;;;6.60;54.70
23339;BME280;11841;49.368;20.962;2023-04-27T08:26:47;95941.44;;;6.67;56.13
23339;BME280;11841;49.368;20.962;2023-04-27T08:29:32;95947.06;;;6.64;55.37
23339;BME280;11841;49.368;20.962;2023-04-27T08:32:19;95938.63;;;6.68;54.23
23339;BME280;11841;49.368;20.962;2023-04-27T08:35:04;95950.41;;;6.72;53.65
23339;BME280;11841;49.368;20.962;2023-04-27T08:37:50;95939.66;;;6.74;53.84
23339;BME280;11841;49.368;20.962;2023-04-27T08:40:35;95948.41;;;6.74;56.53
23339;BME280;11841;49.368;20.962;2023-04-27T08:43:25;95955.41;;;6.67;58.73
23339;BME280;11841;49.368;20.962;2023-04-27T08:46:10;95952.38;;;6.70;59.31
23339;BME280;11841;49.368;20.962;2023-04-27T08:48:56;95963.31;;;6.67;60.24
23339;BME280;11841;49.368;20.962;2023-04-27T08:51:42;95967.22;;;6.71;60.17
23339;BME280;11841;49.368;20.962;2023-04-27T08:54:27;95978.13;;;6.68;61.06
23339;BME280;11841;49.368;20.962;2023-04-27T08:57:13;95972.59;;;6.63;62.07
23339;BME280;11841;49.368;20.962;2023-04-27T08:59:59;95985.97;;;6.62;62.54
23339;BME280;11841;49.368;20.962;2023-04-27T09:02:46;95980.25;;;6.58;62.56
23339;BME280;11841;49.368;20.962;2023-04-27T09:05:32;95991.13;;;6.55;62.18
23339;BME280;11841;49.368;20.962;2023-04-27T09:08:18;95980.06;;;6.45;62.02
23339;BME280;11841;49.368;20.962;2023-04-27T09:11:03;95986.72;;;6.41;62.19
23339;BME280;11841;49.368;20.962;2023-04-27T09:13:49;95985.16;;;6.47;62.44
23339;BME280;11841;49.368;20.962;2023-04-27T09:16:34;95983.34;;;6.47;62.40
23339;BME280;11841;49.368;20.962;2023-04-27T09:19:24;95984.63;;;6.51;62.86
23339;BME280;11841;49.368;20.962;2023-04-27T09:22:10;95980.34;;;6.50;63.69
23339;BME280;11841;49.368;20.962;2023-04-27T09:24:55;95982.19;;;6.50;63.62
23339;BME280;11841;49.368;20.962;2023-04-27T09:27:42;95977.72;;;6.50;64.73
23339;BME280;11841;49.368;20.962;2023-04-27T09:30:28;95969.16;;;6.48;65.76
23339;BME280;11841;49.368;20.962;2023-04-27T09:33:13;95963.81;;;6.56;64.73
23339;BME280;11841;49.368;20.962;2023-04-27T09:36:02;95960.03;;;6.65;63.82
23339;BME280;11841;49.368;20.962;2023-04-27T09:38:48;95956.28;;;6.74;64.27
23339;BME280;11841;49.368;20.962;2023-04-27T09:41:34;95954.16;;;6.84;63.64
23339;BME280;11841;49.368;20.962;2023-04-27T09:44:19;95946.91;;;6.86;61.87
23339;BME280;11841;49.368;20.962;2023-04-27T09:47:05;95942.94;;;6.97;61.55
23339;BME280;11841;49.368;20.962;2023-04-27T09:49:51;95942.47;;;7.14;60.22
23339;BME280;11841;49.368;20.962;2023-04-27T09:52:36;95935.84;;;7.18;58.20
23339;BME280;11841;49.368;20.962;2023-04-27T09:55:47;95942.38;;;7.22;58.65
23339;BME280;11841;49.368;20.962;2023-04-27T09:58:51;95944.81;;;7.24;57.05
23339;BME280;11841;49.368;20.962;2023-04-27T10:01:44;95951.28;;;7.21;58.75
23339;BME280;11841;49.368;20.962;2023-04-27T10:07:55;95953.16;;;7.06;61.35
23339;BME280;11841;49.368;20.962;2023-04-27T10:10:51;95955.59;;;7.08;61.97
23339;BME280;11841;49.368;20.962;2023-04-27T10:13:37;95953.22;;;7.13;62.72
23339;BME280;11841;49.368;20.962;2023-04-27T10:16:22;95948.78;;;7.13;61.36
23339;BME280;11841;49.368;20.962;2023-04-27T10:19:08;95943.06;;;7.10;61.93
23339;BME280;11841;49.368;20.962;2023-04-27T10:22:00;95943.13;;;7.16;61.69
23339;BME280;11841;49.368;20.962;2023-04-27T10:24:51;95941.31;;;7.17;61.09
23339;BME280;11841;49.368;20.962;2023-04-27T10:27:38;95944.81;;;7.24;60.10
23339;BME280;11841;49.368;20.962;2023-04-27T10:30:35;95923.22;;;7.42;59.11
23339;BME280;11841;49.368;20.962;2023-04-27T10:33:22;95940.59;;;7.57;59.31
23339;BME280;11841;49.368;20.962;2023-04-27T10:36:13;95922.31;;;7.56;54.77
23339;BME280;11841;49.368;20.962;2023-04-27T10:38:59;95928.66;;;7.61;55.91
23339;BME280;11841;49.368;20.962;2023-04-27T10:41:55;95932.19;;;7.75;54.56
23339;BME280;11841;49.368;20.962;2023-04-27T10:44:41;95931.38;;;7.74;53.08
23339;BME280;11841;49.368;20.962;2023-04-27T10:47:38;95922.47;;;7.75;54.52
23339;BME280;11841;49.368;20.962;2023-04-27T10:50:24;95928.16;;;7.79;54.58
23339;BME280;11841;49.368;20.962;2023-04-27T10:53:09;95918.81;;;7.76;53.43
23339;BME280;11841;49.368;20.962;2023-04-27T10:55:55;95924.28;;;7.75;53.80
23339;BME280;11841;49.368;20.962;2023-04-27T10:58:40;95921.00;;;7.73;53.31
23339;BME280;11841;49.368;20.962;2023-04-27T11:01:34;95930.94;;;7.71;54.27
23339;BME280;11841;49.368;20.962;2023-04-27T11:04:19;95929.13;;;7.71;54.66
23339;BME280;11841;49.368;20.962;2023-04-27T11:07:08;95928.16;;;7.79;54.93
23339;BME280;11841;49.368;20.962;2023-04-27T11:09:54;95922.94;;;7.85;55.49
23339;BME280;11841;49.368;20.962;2023-04-27T11:12:39;95930.66;;;7.87;55.10
23339;BME280;11841;49.368;20.962;2023-04-27T11:15:25;95923.56;;;7.87;53.43
23339;BME280;11841;49.368;20.962;2023-04-27T11:18:10;95928.75;;;7.81;53.17
23339;BME280;11841;49.368;20.962;2023-04-27T11:21:08;95921.31;;;7.91;53.78
23339;BME280;11841;49.368;20.962;2023-04-27T11:23:53;95921.16;;;7.99;54.10
23339;BME280;11841;49.368;20.962;2023-04-27T11:26:38;95910.06;;;8.16;52.10
23339;BME280;11841;49.368;20.962;2023-04-27T11:29:24;95904.00;;;8.22;53.79
23339;BME280;11841;49.368;20.962;2023-04-27T11:32:20;95910.97;;;8.30;51.71
23339;BME280;11841;49.368;20.962;2023-04-27T11:35:05;95912.00;;;8.29;51.67
23339;BME280;11841;49.368;20.962;2023-04-27T11:37:57;95915.41;;;8.23;50.96
23339;BME280;11841;49.368;20.962;2023-04-27T11:40:46;95919.91;;;8.29;52.23
23339;BME280;11841;49.368;20.962;2023-04-27T11:43:32;95912.63;;;8.31;51.99
23339;BME280;11841;49.368;20.962;2023-04-27T11:46:20;95913.81;;;8.28;52.05
23339;BME280;11841;49.368;20.962;2023-04-27T11:49:06;95917.88;;;8.24;51.22
23339;BME280;11841;49.368;20.962;2023-04-27T11:51:55;95918.88;;;8.23;52.82
23339;BME280;11841;49.368;20.962;2023-04-27T11:54:52;95921.31;;;8.25;53.27
23339;BME280;11841;49.368;20.962;2023-04-27T11:57:40;95922.34;;;8.24;54.60
23339;BME280;11841;49.368;20.962;2023-04-27T12:00:26;95919.69;;;8.24;53.59
23339;BME280;11841;49.368;20.962;2023-04-27T12:03:11;95929.56;;;8.15;53.63
23339;BME280;11841;49.368;20.962;2023-04-27T12:05:57;95924.28;;;8.09;54.48
23339;BME280;11841;49.368;20.962;2023-04-27T12:09:00;95930.31;;;8.03;54.74
23339;BME280;11841;49.368;20.962;2023-04-27T12:11:46;95933.50;;;7.92;54.72
23339;BME280;11841;49.368;20.962;2023-04-27T12:14:31;95935.13;;;7.93;54.80
23339;BME280;11841;49.368;20.962;2023-04-27T12:17:17;95932.28;;;7.94;56.16
23339;BME280;11841;49.368;20.962;2023-04-27T12:20:03;95938.63;;;8.00;55.74
23339;BME280;11841;49.368;20.962;2023-04-27T12:22:48;95942.91;;;8.01;54.97
23339;BME280;11841;49.368;20.962;2023-04-27T12:25:34;95937.25;;;8.04;54.88
23339;BME280;11841;49.368;20.962;2023-04-27T12:28:20;95942.69;;;7.96;53.77
23339;BME280;11841;49.368;20.962;2023-04-27T12:31:05;95949.78;;;7.95;54.27
23339;BME280;11841;49.368;20.962;2023-04-27T12:33:52;95939.66;;;7.99;54.06
23339;BME280;11841;49.368;20.962;2023-04-27T12:36:38;95939.69;;;8.05;53.77
23339;BME280;11841;49.368;20.962;2023-04-27T12:39:23;95943.38;;;8.11;54.44
23339;BME280;11841;49.368;20.962;2023-04-27T12:42:11;95941.94;;;8.15;53.57
23339;BME280;11841;49.368;20.962;2023-04-27T12:44:56;95939.94;;;8.17;53.86
23339;BME280;11841;49.368;20.962;2023-04-27T12:47:42;95937.72;;;8.20;53.85
23339;BME280;11841;49.368;20.962;2023-04-27T12:50:45;95949.09;;;8.21;52.81
23339;BME280;11841;49.368;20.962;2023-04-27T12:53:31;95946.28;;;8.22;53.24
23339;BME280;11841;49.368;20.962;2023-04-27T12:56:16;95951.56;;;8.22;54.22
23339;BME280;11841;49.368;20.962;2023-04-27T12:59:02;95950.34;;;8.25;54.21
23339;BME280;11841;49.368;20.962;2023-04-27T13:01:48;95957.59;;;8.16;54.87
23339;BME280;11841;49.368;20.962;2023-04-27T13:04:33;95944.81;;;8.20;55.67
23339;BME280;11841;49.368;20.962;2023-04-27T13:07:20;95949.38;;;8.26;55.32
23339;BME280;11841;49.368;20.962;2023-04-27T13:10:07;95953.56;;;8.20;55.16
23339;BME280;11841;49.368;20.962;2023-04-27T13:12:53;95958.41;;;8.17;55.20
23339;BME280;11841;49.368;20.962;2023-04-27T13:15:38;95960.25;;;8.16;55.58
23339;BME280;11841;49.368;20.962;2023-04-27T13:18:24;95945.00;;;8.12;55.30
23339;BME280;11841;49.368;20.962;2023-04-27T13:21:10;95948.25;;;8.14;55.92
23339;BME280;11841;49.368;20.962;2023-04-27T13:23:55;95940.81;;;8.24;56.47
23339;BME280;11841;49.368;20.962;2023-04-27T13:26:44;95936.59;;;8.29;55.18
23339;BME280;11841;49.368;20.962;2023-04-27T13:29:29;95937.25;;;8.44;55.87
23339;BME280;11841;49.368;20.962;2023-04-27T13:32:15;95932.59;;;8.53;54.99
23339;BME280;11841;49.368;20.962;2023-04-27T13:35:00;95938.31;;;8.63;54.97
23339;BME280;11841;49.368;20.962;2023-04-27T13:37:48;95937.09;;;8.66;54.44
23339;BME280;11841;49.368;20.962;2023-04-27T13:40:33;95938.53;;;8.62;55.33
23339;BME280;11841;49.368;20.962;2023-04-27T13:43:18;95936.91;;;8.67;55.57
23339;BME280;11841;49.368;20.962;2023-04-27T13:46:04;95940.38;;;8.74;54.57
23339;BME280;11841;49.368;20.962;2023-04-27T13:48:49;95934.66;;;8.71;53.26
23339;BME280;11841;49.368;20.962;2023-04-27T13:51:35;95935.50;;;8.71;53.09
23339;BME280;11841;49.368;20.962;2023-04-27T13:54:20;95953.59;;;8.74;53.21
23339;BME280;11841;49.368;20.962;2023-04-27T13:57:06;95952.97;;;8.66;51.84
23339;BME280;11841;49.368;20.962;2023-04-27T13:59:51;95965.16;;;8.60;52.75
23339;BME280;11841;49.368;20.962;2023-04-27T14:02:37;95958.97;;;8.40;53.77
23339;BME280;11841;49.368;20.962;2023-04-27T14:05:23;95965.84;;;8.28;53.64
23339;BME280;11841;49.368;20.962;2023-04-27T14:08:09;95964.97;;;8.21;54.58
23339;BME280;11841;49.368;20.962;2023-04-27T14:10:54;95968.66;;;8.26;54.49
23339;BME280;11841;49.368;20.962;2023-04-27T14:13:40;95974.34;;;8.23;54.85
23339;BME280;11841;49.368;20.962;2023-04-27T14:16:27;95974.69;;;8.20;53.98
23339;BME280;11841;49.368;20.962;2023-04-27T14:19:12;95975.06;;;8.11;54.92
23339;BME280;11841;49.368;20.962;2023-04-27T14:22:00;95986.22;;;8.13;54.94
23339;BME280;11841;49.368;20.962;2023-04-27T14:24:45;95983.22;;;8.16;55.24
23339;BME280;11841;49.368;20.962;2023-04-27T14:27:31;95982.81;;;8.19;55.73
23339;BME280;11841;49.368;20.962;2023-04-27T14:30:17;95981.44;;;8.23;56.12
23339;BME280;11841;49.368;20.962;2023-04-27T14:33:02;95969.06;;;8.23;56.00
23339;BME280;11841;49.368;20.962;2023-04-27T14:35:48;95979.22;;;8.26;56.27
23339;BME280;11841;49.368;20.962;2023-04-27T14:38:33;95977.41;;;8.27;55.67
23339;BME280;11841;49.368;20.962;2023-04-27T14:41:18;95973.56;;;8.29;56.05
23339;BME280;11841;49.368;20.962;2023-04-27T14:44:05;95970.94;;;8.36;56.12